Clearwater, FL

5:01 PM EDT on March 27, 2015 (GMT -0400)
Tampa International | | Change Station
CLOSE
Current Station
Airport
Location: Tampa,
Elevation: 10 ft
Nearby Weather Stations
Active Advisory: Beach Hazard Statement

Elev 10 ft 27.96 °N, 82.54 °W | Updated 8 minutes ago

Rain
Rain
69 °F
Feels Like 69 °F
N
10
Wind Variable Wind from WSW

Today
High -- | Low -- °F
--% Chance of Precip.
Yesterday
High -- | Low -- °F
Precip. -- in
7:27 AM 7:46 PM
First Quarter, 55% visible
Pressure 29.85 in
Visibility 10.0 miles
Clouds Mostly Cloudy 3300 ft
Mostly Cloudy 5500 ft
Overcast 10000 ft
Dew Point 62 °F
Humidity 78%
Rainfall 0.50 in
Snow Depth Not available.
UV 2 out of 12
Pollen 5.00 out of 12
Air Quality Not available.
Flu Activity Not available.
METAR KTPA 272053Z 25009KT 10SM -RA BKN033 BKN055 OVC100 21/17 A2985 RMK AO2 SLP106 PCPN VRY LGT P0002 60021 T02060167 56010

More Conditions Fewer Conditions

Pressure 29.85 in
Visibility 10.0 miles
Clouds Mostly Cloudy 3300 ft
Mostly Cloudy 5500 ft
Overcast 10000 ft
Dew Point 62 °F
Humidity 78%
Rainfall 0.50 in
Snow Depth Not available.
UV 2 out of 12
Pollen 5.00 out of 12
Air Quality Not available.
Flu Activity Not available.
METAR KTPA 272053Z 25009KT 10SM -RA BKN033 BKN055 OVC100 21/17 A2985 RMK AO2 SLP106 PCPN VRY LGT P0002 60021 T02060167 56010

More Conditions Fewer Conditions

10-Day Weather Forecast

Almanac

Astronomy

Mar. 27, 2015 Rise Set
Actual Time
Civil Twilight
Nautical Twilight
Astronomical Twilight
Moon
Length of Visible Light
Length of Day
Tomorrow will be .
, % of the Moon is Illuminated

Today's Extremes

State Highs State Lows

Community

WunderPhotos

Upload Photos

1,808,826 photos uploaded!

WunderBlogs® & News

Nearby

Air Quality

  Air Quality AQ Index Pollutant
Not available.

Snow Depth

Station Depth Elevation

Earthquake Activity

City Distance Mag. Time & Date
Minimum magnitude displayed is 2.5.

Coastal Water Temperatures

Place Temperature

Stations

Nearby Weather Stations

Station Location Temp. Windchill Dew Point Humidity Wind Precip. Elev Updated Type
                   
Beach Hazard Statement
Statement as of 5:14 AM EDT on March 27, 2015

... Beach hazards statement in effect from noon EDT today through
this evening...

The National Weather Service in Tampa Bay Ruskin has issued a
beach hazards statement for a moderate risk of rip currents which
is in effect from noon EDT today through this evening.

* Hazards... moderate risk of rip currents.

* Timing... from noon through this evening.

* Location... area beaches from Pinellas to Lee counties.

Precautionary/preparedness actions...

A moderate risk of rip currents means wind and or wave conditions
support stronger or more frequent rip currents. Always have a
flotation device with you in the water.



Http://www.Weather.Gov/Tampa